Time;durP1;ratioP1;P1;durP2;ratioP2;P2;SDS_P1;SDS_P2;PMS_P1;PMS_P2;Temp;Humidity;BMP_temperature;BMP_pressure;BME280_temperature;BME280_humidity;BME280_pressure;Samples;Min_cycle;Max_cycle;Signal;HPM_P1;HPM_P2
2023/06/13 00:00:28;;;;;;;9.80;8.15;;;16.10;99.90;;;;;;2093522;28;20070;-77
2023/06/13 00:01:30;;;;;;;9.43;7.45;;;16.10;99.90;;;;;;2101384;28;20055;-77
2023/06/13 00:02:33;;;;;;;12.63;7.80;;;16.10;99.90;;;;;;2105506;28;20604;-77
2023/06/13 00:03:33;;;;;;;11.85;8.20;;;16.10;99.90;;;;;;2098229;28;20516;-76
2023/06/13 00:04:34;;;;;;;10.70;8.13;;;16.10;99.90;;;;;;2099550;28;20051;-77
2023/06/13 00:05:34;;;;;;;9.43;8.30;;;16.10;99.90;;;;;;2099238;28;20052;-77
2023/06/13 00:06:37;;;;;;;10.55;8.07;;;16.10;99.90;;;;;;2094457;28;20040;-76
2023/06/13 00:07:38;;;;;;;9.93;7.95;;;16.10;99.90;;;;;;2095335;28;20401;-76
2023/06/13 00:08:41;;;;;;;12.40;8.30;;;16.10;99.90;;;;;;2092606;28;20325;-75
2023/06/13 00:09:41;;;;;;;11.90;8.52;;;16.00;99.90;;;;;;2092078;28;20478;-77
2023/06/13 00:10:42;;;;;;;9.98;8.10;;;16.10;99.90;;;;;;2093627;28;20064;-78
2023/06/13 00:11:45;;;;;;;9.25;8.35;;;16.00;99.90;;;;;;2097069;28;20095;-78
2023/06/13 00:12:49;;;;;;;12.25;8.57;;;16.00;99.90;;;;;;2092220;28;20083;-77
2023/06/13 00:13:49;;;;;;;9.18;8.00;;;16.10;99.90;;;;;;2095306;28;20053;-77
2023/06/13 00:14:50;;;;;;;10.23;8.13;;;16.00;99.90;;;;;;2099194;28;20159;-77
2023/06/13 00:15:53;;;;;;;16.48;8.73;;;16.00;99.90;;;;;;2096349;28;20086;-76
2023/06/13 00:16:54;;;;;;;10.07;8.40;;;16.00;99.90;;;;;;2097946;28;20120;-76
2023/06/13 00:17:55;;;;;;;9.82;8.40;;;15.90;99.90;;;;;;2098113;28;20032;-76
2023/06/13 00:18:56;;;;;;;9.63;8.07;;;15.90;99.90;;;;;;2097752;28;20107;-75
2023/06/13 00:19:56;;;;;;;9.80;8.77;;;15.80;99.90;;;;;;2102450;28;20068;-76
2023/06/13 00:20:58;;;;;;;10.20;8.80;;;15.80;99.90;;;;;;2096885;28;20115;-76
2023/06/13 00:21:59;;;;;;;8.95;7.97;;;15.70;99.90;;;;;;2101237;28;20040;-75
2023/06/13 00:23:03;;;;;;;10.88;8.73;;;15.70;99.90;;;;;;2100378;28;20040;-75
2023/06/13 00:24:04;;;;;;;11.07;8.57;;;15.70;99.90;;;;;;2097015;28;20020;-76
2023/06/13 00:25:05;;;;;;;11.23;8.80;;;15.60;99.90;;;;;;2097104;28;20078;-76
2023/06/13 00:26:06;;;;;;;11.77;9.35;;;15.60;99.90;;;;;;2101355;28;20116;-75
2023/06/13 00:27:06;;;;;;;11.45;9.23;;;15.60;99.90;;;;;;2097667;28;20044;-76
2023/06/13 00:28:07;;;;;;;10.85;8.90;;;15.60;99.90;;;;;;2100536;28;20354;-76
2023/06/13 00:29:08;;;;;;;11.50;9.50;;;15.50;99.90;;;;;;2100271;28;20037;-76
2023/06/13 00:30:09;;;;;;;12.07;9.60;;;15.50;99.90;;;;;;2092312;28;20104;-76
2023/06/13 00:31:10;;;;;;;14.10;10.00;;;15.50;99.90;;;;;;2100923;28;20093;-76
2023/06/13 00:32:11;;;;;;;11.27;9.82;;;15.50;99.90;;;;;;2101407;28;20024;-76
2023/06/13 00:33:16;;;;;;;12.82;10.13;;;15.50;99.90;;;;;;2089312;28;20028;-75
2023/06/13 00:34:16;;;;;;;14.05;11.07;;;15.40;99.90;;;;;;2095074;28;20051;-76
2023/06/13 00:35:17;;;;;;;13.55;10.10;;;15.30;99.90;;;;;;2099085;28;20027;-76
2023/06/13 00:36:20;;;;;;;12.93;10.90;;;15.30;99.90;;;;;;2099086;28;20052;-76
2023/06/13 00:37:20;;;;;;;14.25;10.70;;;15.30;99.90;;;;;;2099778;28;20036;-75
2023/06/13 00:38:23;;;;;;;15.75;10.85;;;15.30;99.90;;;;;;2104084;28;20484;-76
2023/06/13 00:39:24;;;;;;;14.75;10.63;;;15.30;99.90;;;;;;2096545;28;20542;-76
2023/06/13 00:40:25;;;;;;;16.38;10.23;;;15.30;99.90;;;;;;2096922;28;20078;-76
2023/06/13 00:41:26;;;;;;;11.77;10.27;;;15.30;99.90;;;;;;2096913;28;20028;-76
2023/06/13 00:42:26;;;;;;;13.10;10.25;;;15.20;99.90;;;;;;2107203;28;20042;-76
2023/06/13 00:43:28;;;;;;;13.40;9.75;;;15.20;99.90;;;;;;2099960;28;20318;-77
2023/06/13 00:44:29;;;;;;;12.98;10.00;;;15.20;99.90;;;;;;2100128;28;20020;-76
2023/06/13 00:45:31;;;;;;;12.55;9.75;;;15.20;99.90;;;;;;2098624;28;20102;-77
2023/06/13 00:46:34;;;;;;;12.93;9.60;;;15.20;99.90;;;;;;2098800;28;20568;-77
2023/06/13 00:47:36;;;;;;;12.82;9.80;;;15.20;99.90;;;;;;2095664;28;20036;-76
2023/06/13 00:48:38;;;;;;;14.57;9.55;;;15.10;99.90;;;;;;2085251;28;20032;-77
2023/06/13 00:49:38;;;;;;;14.70;9.32;;;15.10;99.90;;;;;;2093619;28;20523;-76
2023/06/13 00:50:44;;;;;;;13.55;9.18;;;15.10;99.90;;;;;;2102094;28;20032;-72
2023/06/13 00:51:46;;;;;;;12.38;9.45;;;15.00;99.90;;;;;;2102001;28;20027;-72
2023/06/13 00:52:47;;;;;;;13.02;9.30;;;15.00;99.90;;;;;;2097324;28;20024;-80
2023/06/13 00:53:50;;;;;;;11.68;9.48;;;15.00;99.90;;;;;;2094616;28;20043;-71
2023/06/13 00:54:51;;;;;;;11.48;9.10;;;15.00;99.90;;;;;;2093116;28;20414;-80
2023/06/13 00:55:51;;;;;;;11.35;9.07;;;15.00;99.90;;;;;;2098827;28;20032;-80
2023/06/13 00:56:52;;;;;;;15.75;9.40;;;15.00;99.90;;;;;;2098923;28;20036;-79
2023/06/13 00:57:58;;;;;;;10.57;9.40;;;15.00;99.90;;;;;;2097744;28;20032;-79
2023/06/13 00:59:00;;;;;;;13.73;8.88;;;14.90;99.90;;;;;;2098211;28;20028;-80
2023/06/13 01:00:03;;;;;;;11.10;8.88;;;15.00;99.90;;;;;;2084265;28;20941;-80
2023/06/13 01:01:04;;;;;;;11.13;8.75;;;14.90;99.90;;;;;;2094003;28;20077;-80
2023/06/13 01:02:05;;;;;;;9.88;8.73;;;14.90;99.90;;;;;;2089448;28;20436;-79
2023/06/13 01:03:15;;;;;;;10.57;8.75;;;14.90;99.90;;;;;;2092639;28;20103;-79
2023/06/13 01:04:19;;;;;;;12.20;9.02;;;14.90;99.90;;;;;;2101781;28;20065;-79
2023/06/13 01:05:22;;;;;;;11.05;8.85;;;14.90;99.90;;;;;;2101000;28;20479;-79
2023/06/13 01:06:24;;;;;;;11.02;8.77;;;14.90;99.90;;;;;;2093813;28;20017;-78
2023/06/13 01:07:29;;;;;;;9.95;8.82;;;14.90;99.90;;;;;;2089205;28;20021;-78
2023/06/13 01:08:30;;;;;;;11.45;8.82;;;14.90;99.90;;;;;;2102602;28;20047;-78
2023/06/13 01:09:32;;;;;;;10.70;8.35;;;14.90;99.90;;;;;;2095240;28;20104;-79
2023/06/13 01:10:34;;;;;;;10.00;8.80;;;14.80;99.90;;;;;;2099130;28;20036;-78
2023/06/13 01:11:56;;;;;;;10.10;8.82;;;14.80;99.90;;;;;;2096477;28;20503;-80
2023/06/13 01:13:27;;;;;;;10.02;8.63;;;14.80;99.90;;;;;;2097826;28;20477;-79
2023/06/13 01:14:51;;;;;;;12.40;8.52;;;14.80;99.90;;;;;;2101896;28;20027;-79
2023/06/13 01:15:58;;;;;;;12.50;8.40;;;14.80;99.90;;;;;;2093431;28;20119;-79
2023/06/13 01:17:04;;;;;;;9.63;8.02;;;14.80;99.90;;;;;;2095278;28;20046;-80
2023/06/13 01:18:07;;;;;;;10.52;8.80;;;14.80;99.90;;;;;;2090063;28;20034;-79
2023/06/13 01:19:18;;;;;;;10.60;8.70;;;14.80;99.90;;;;;;2087937;28;20025;-79
2023/06/13 01:20:21;;;;;;;9.63;8.63;;;14.70;99.90;;;;;;2085548;28;20524;-80
2023/06/13 01:21:24;;;;;;;11.50;8.73;;;14.80;99.90;;;;;;2104292;28;20030;-79
2023/06/13 01:22:42;;;;;;;11.02;8.70;;;14.80;99.90;;;;;;2097156;28;20028;-79
2023/06/13 01:24:07;;;;;;;10.80;8.98;;;14.70;99.90;;;;;;2105889;28;20035;-80
2023/06/13 01:25:29;;;;;;;14.93;9.30;;;14.70;99.90;;;;;;2103276;28;20055;-79
2023/06/13 01:26:52;;;;;;;12.57;8.57;;;14.70;99.90;;;;;;2083669;28;20036;-80
2023/06/13 01:27:55;;;;;;;10.23;8.68;;;14.70;99.90;;;;;;2088414;28;20028;-79
2023/06/13 01:28:57;;;;;;;11.35;8.57;;;14.70;99.90;;;;;;2099140;28;20047;-79
2023/06/13 01:30:02;;;;;;;11.07;8.50;;;14.70;99.90;;;;;;2095463;28;20455;-80
2023/06/13 01:31:06;;;;;;;14.38;9.05;;;14.70;99.90;;;;;;2080661;28;20067;-79
2023/06/13 01:32:07;;;;;;;10.40;9.18;;;14.70;99.90;;;;;;2093411;28;20555;-79
2023/06/13 01:33:09;;;;;;;11.55;8.85;;;14.60;99.90;;;;;;2098833;28;20401;-79
2023/06/13 01:34:12;;;;;;;11.80;9.18;;;14.60;99.90;;;;;;2098224;28;20020;-80
2023/06/13 01:35:13;;;;;;;11.23;9.15;;;14.60;99.90;;;;;;2092944;28;20072;-81
2023/06/13 01:36:15;;;;;;;10.20;8.35;;;14.60;99.90;;;;;;2095389;28;20525;-80
2023/06/13 01:37:15;;;;;;;10.73;8.48;;;14.60;99.90;;;;;;2102242;28;20032;-80
2023/06/13 01:38:19;;;;;;;12.30;9.18;;;14.60;99.90;;;;;;2103401;28;20069;-80
2023/06/13 01:39:20;;;;;;;10.98;8.95;;;14.60;99.90;;;;;;2100069;28;20498;-80
2023/06/13 01:40:20;;;;;;;12.48;9.27;;;14.60;99.90;;;;;;2090343;28;20056;-80
2023/06/13 01:41:21;;;;;;;11.43;8.70;;;14.70;99.90;;;;;;2082166;28;20025;-80
2023/06/13 01:42:22;;;;;;;12.20;8.88;;;14.70;99.90;;;;;;2093107;28;20025;-80
2023/06/13 01:43:22;;;;;;;11.55;8.43;;;14.70;99.90;;;;;;2094301;28;20032;-80
2023/06/13 01:44:23;;;;;;;10.40;8.38;;;14.60;99.90;;;;;;2092994;28;20117;-80
2023/06/13 01:45:24;;;;;;;12.10;8.80;;;14.70;99.90;;;;;;2101334;28;20442;-80
2023/06/13 01:46:27;;;;;;;9.60;8.35;;;14.60;99.90;;;;;;2099881;28;20036;-80
2023/06/13 01:47:58;;;;;;;9.32;8.32;;;14.60;99.90;;;;;;2100251;28;20050;-80
2023/06/13 01:49:17;;;;;;;9.63;8.13;;;14.60;99.90;;;;;;2104139;28;20584;-81
2023/06/13 01:50:34;;;;;;;9.10;8.18;;;14.60;99.90;;;;;;2091961;28;20024;-82
2023/06/13 01:52:03;;;;;;;10.10;8.40;;;14.50;99.90;;;;;;2092066;28;20519;-79
2023/06/13 01:53:10;;;;;;;10.02;8.20;;;14.50;99.90;;;;;;2099346;28;20467;-79
2023/06/13 01:54:14;;;;;;;11.38;9.05;;;14.50;99.90;;;;;;2099593;28;20028;-80
2023/06/13 01:55:42;;;;;;;9.70;8.00;;;14.50;99.90;;;;;;2098795;28;20016;-80
2023/06/13 01:56:44;;;;;;;10.05;8.27;;;14.50;99.90;;;;;;2100740;28;20024;-80
2023/06/13 01:57:56;;;;;;;11.30;8.32;;;14.50;99.90;;;;;;2100378;28;20043;-80
2023/06/13 01:59:00;;;;;;;9.02;8.00;;;14.50;99.90;;;;;;2093478;28;20051;-79
2023/06/13 02:00:03;;;;;;;10.32;8.30;;;14.50;99.90;;;;;;2092646;28;20678;-80
2023/06/13 02:01:18;;;;;;;10.48;8.82;;;14.50;99.90;;;;;;2101180;28;20115;-80
2023/06/13 02:02:20;;;;;;;10.68;8.50;;;14.50;99.90;;;;;;2088761;28;20277;-80
2023/06/13 02:03:21;;;;;;;11.55;8.32;;;14.50;99.90;;;;;;2092954;28;20043;-81
2023/06/13 02:04:22;;;;;;;9.63;8.45;;;14.40;99.90;;;;;;2096622;28;20078;-80
2023/06/13 02:05:25;;;;;;;10.00;8.02;;;14.40;99.90;;;;;;2105460;28;20049;-80
2023/06/13 02:06:29;;;;;;;11.48;8.57;;;14.40;99.90;;;;;;2095471;28;20035;-80
2023/06/13 02:07:32;;;;;;;9.77;8.40;;;14.40;99.90;;;;;;2090446;28;20039;-80
2023/06/13 02:08:35;;;;;;;10.45;8.05;;;14.40;99.90;;;;;;2095538;28;20067;-79
2023/06/13 02:09:37;;;;;;;9.50;8.50;;;14.40;99.90;;;;;;2082923;28;20032;-79
2023/06/13 02:10:37;;;;;;;13.18;8.20;;;14.40;99.90;;;;;;2095031;28;20036;-80
2023/06/13 02:11:38;;;;;;;9.68;8.68;;;14.40;99.90;;;;;;2093397;28;20183;-80
2023/06/13 02:12:39;;;;;;;10.35;8.25;;;14.40;99.90;;;;;;2093450;28;20032;-80
2023/06/13 02:13:39;;;;;;;10.77;8.23;;;14.40;99.90;;;;;;2096166;28;20064;-80
2023/06/13 02:14:42;;;;;;;9.68;7.97;;;14.30;99.90;;;;;;2094672;28;20071;-82
2023/06/13 02:15:43;;;;;;;10.15;8.48;;;14.30;99.90;;;;;;2097544;28;20102;-79
2023/06/13 02:16:48;;;;;;;10.38;8.57;;;14.30;99.90;;;;;;2091935;28;20388;-81
2023/06/13 02:17:48;;;;;;;16.35;8.77;;;14.30;99.90;;;;;;2101677;28;20423;-80
2023/06/13 02:18:49;;;;;;;13.63;8.40;;;14.30;99.90;;;;;;2097368;28;20025;-80
2023/06/13 02:19:50;;;;;;;10.57;8.52;;;14.30;99.90;;;;;;2094418;28;20115;-80
2023/06/13 02:20:50;;;;;;;11.60;8.60;;;14.30;99.90;;;;;;2100140;28;20398;-80
2023/06/13 02:21:51;;;;;;;11.55;8.65;;;14.30;99.90;;;;;;2100140;28;20035;-80
2023/06/13 02:22:52;;;;;;;11.45;8.90;;;14.20;99.90;;;;;;2100885;28;20028;-80
2023/06/13 02:23:52;;;;;;;10.50;8.65;;;14.20;99.90;;;;;;2089525;28;20017;-80
2023/06/13 02:24:53;;;;;;;9.38;8.43;;;14.20;99.90;;;;;;2094441;28;20112;-79
2023/06/13 02:25:55;;;;;;;13.52;9.15;;;14.10;99.90;;;;;;2086503;28;20060;-80
2023/06/13 02:26:56;;;;;;;10.23;9.10;;;14.10;99.90;;;;;;2093141;28;20090;-81
2023/06/13 02:27:57;;;;;;;11.23;8.98;;;14.10;99.90;;;;;;2101297;28;20561;-80
2023/06/13 02:28:57;;;;;;;11.18;8.88;;;14.00;99.90;;;;;;2101128;28;20044;-80
2023/06/13 02:29:58;;;;;;;10.52;9.05;;;14.00;99.90;;;;;;2101042;28;20154;-80
2023/06/13 02:30:58;;;;;;;11.93;8.80;;;14.00;99.90;;;;;;2102219;28;20104;-79
2023/06/13 02:31:59;;;;;;;11.57;9.43;;;14.00;99.90;;;;;;2100760;28;20054;-79
2023/06/13 02:33:01;;;;;;;12.32;9.05;;;14.00;99.90;;;;;;2090967;28;20487;-79
2023/06/13 02:34:02;;;;;;;13.05;9.10;;;13.90;99.90;;;;;;2097728;28;20031;-79
2023/06/13 02:35:03;;;;;;;11.30;9.48;;;13.90;99.90;;;;;;2098850;28;20024;-79
2023/06/13 02:36:07;;;;;;;10.07;9.05;;;13.90;99.90;;;;;;2101167;28;20422;-81
2023/06/13 02:37:08;;;;;;;10.98;9.15;;;13.90;99.90;;;;;;2093195;28;20028;-80
2023/06/13 02:38:09;;;;;;;11.40;9.07;;;13.90;99.90;;;;;;2083519;28;20028;-80
2023/06/13 02:39:11;;;;;;;10.80;9.27;;;13.80;99.90;;;;;;2092361;28;20130;-79
2023/06/13 02:40:12;;;;;;;9.65;8.52;;;13.80;99.90;;;;;;2100760;28;20024;-79
2023/06/13 02:41:12;;;;;;;11.38;8.70;;;13.80;99.90;;;;;;2101499;28;20493;-80
2023/06/13 02:42:13;;;;;;;11.27;9.10;;;13.80;99.90;;;;;;2098127;28;20327;-79
2023/06/13 02:43:13;;;;;;;9.45;8.48;;;13.80;99.90;;;;;;2098004;28;20035;-79
2023/06/13 02:44:14;;;;;;;10.80;8.73;;;13.80;99.90;;;;;;2105352;28;20035;-79
2023/06/13 02:45:16;;;;;;;10.20;9.02;;;13.70;99.90;;;;;;2094109;28;20471;-81
2023/06/13 02:46:16;;;;;;;12.20;9.02;;;13.80;99.90;;;;;;2102931;28;20073;-80
2023/06/13 02:47:19;;;;;;;11.55;8.70;;;13.70;99.90;;;;;;2089270;28;20020;-78
2023/06/13 02:48:23;;;;;;;11.93;8.98;;;13.70;99.90;;;;;;2092472;28;20032;-80
2023/06/13 02:49:23;;;;;;;11.48;9.18;;;13.70;99.90;;;;;;2100662;28;20043;-79
2023/06/13 02:50:24;;;;;;;9.85;8.85;;;13.70;99.90;;;;;;2100405;28;20118;-80
2023/06/13 02:51:25;;;;;;;11.85;9.32;;;13.70;99.90;;;;;;2101049;28;20376;-81
2023/06/13 02:52:26;;;;;;;12.45;9.70;;;13.70;99.90;;;;;;2081426;28;20040;-81
2023/06/13 02:53:26;;;;;;;10.70;9.10;;;13.70;99.90;;;;;;2084129;28;20090;-80
2023/06/13 02:54:27;;;;;;;11.85;8.73;;;13.70;99.90;;;;;;2089266;28;20116;-79
2023/06/13 02:55:28;;;;;;;11.20;8.55;;;13.60;99.90;;;;;;2093975;28;20028;-80
2023/06/13 02:56:29;;;;;;;10.35;9.02;;;13.70;99.90;;;;;;2094517;28;20027;-81
2023/06/13 02:57:29;;;;;;;10.23;8.93;;;13.60;99.90;;;;;;2094724;28;20028;-81
2023/06/13 02:58:30;;;;;;;12.35;8.70;;;13.60;99.90;;;;;;2096624;28;20477;-79
2023/06/13 02:59:32;;;;;;;11.73;8.95;;;13.60;99.90;;;;;;2094773;28;20031;-80
2023/06/13 03:00:32;;;;;;;10.38;8.70;;;13.70;99.90;;;;;;2092843;28;20024;-80
2023/06/13 03:01:40;;;;;;;13.70;8.75;;;13.60;99.90;;;;;;2103584;28;20027;-80
2023/06/13 03:02:45;;;;;;;12.52;8.95;;;13.60;99.90;;;;;;2094002;28;20110;-80
2023/06/13 03:03:47;;;;;;;12.05;8.45;;;13.60;99.90;;;;;;2097822;28;20135;-80
2023/06/13 03:04:48;;;;;;;9.60;8.43;;;13.60;99.90;;;;;;2097688;28;20031;-80
2023/06/13 03:05:49;;;;;;;11.65;8.60;;;13.60;99.90;;;;;;2096863;28;20534;-80
2023/06/13 03:06:53;;;;;;;10.90;8.35;;;13.60;99.90;;;;;;2097999;28;20438;-80
2023/06/13 03:07:58;;;;;;;9.52;8.40;;;13.60;99.90;;;;;;2082612;28;20028;-79
2023/06/13 03:08:59;;;;;;;10.30;8.50;;;13.60;99.90;;;;;;2079437;28;20600;-80
2023/06/13 03:10:04;;;;;;;9.90;8.70;;;13.60;99.90;;;;;;2083907;28;20488;-80
2023/06/13 03:11:12;;;;;;;10.05;7.90;;;13.60;99.90;;;;;;2085003;28;20574;-80
2023/06/13 03:12:13;;;;;;;10.52;8.43;;;13.60;99.90;;;;;;2085824;28;20143;-79
2023/06/13 03:13:19;;;;;;;9.68;8.18;;;13.60;99.90;;;;;;2095059;28;20027;-78
2023/06/13 03:14:20;;;;;;;13.07;8.43;;;13.60;99.90;;;;;;2084880;28;20455;-79
2023/06/13 03:15:21;;;;;;;10.40;8.48;;;13.60;99.90;;;;;;2095966;28;20206;-78
2023/06/13 03:16:22;;;;;;;12.45;7.93;;;13.60;99.90;;;;;;2081361;28;20386;-79
2023/06/13 03:17:24;;;;;;;11.65;8.70;;;13.60;99.90;;;;;;2078316;28;20392;-80
2023/06/13 03:18:25;;;;;;;12.75;8.40;;;13.50;99.90;;;;;;2081820;28;20120;-79
2023/06/13 03:19:27;;;;;;;10.30;8.65;;;13.60;99.90;;;;;;2094834;28;20024;-79
2023/06/13 03:20:30;;;;;;;10.65;8.52;;;13.60;99.90;;;;;;2089727;28;20571;-77
2023/06/13 03:21:35;;;;;;;11.07;9.10;;;13.50;99.90;;;;;;2088969;28;20108;-78
2023/06/13 03:22:36;;;;;;;9.60;8.43;;;13.50;99.90;;;;;;2093272;28;20110;-79
2023/06/13 03:23:37;;;;;;;10.13;8.20;;;13.50;99.90;;;;;;2091501;28;20036;-79
2023/06/13 03:24:37;;;;;;;9.35;8.18;;;13.50;99.90;;;;;;2095020;28;20446;-79
2023/06/13 03:25:40;;;;;;;10.75;8.77;;;13.50;99.90;;;;;;2104560;28;20027;-78
2023/06/13 03:26:41;;;;;;;11.98;8.38;;;13.50;99.90;;;;;;2100682;28;20562;-79
2023/06/13 03:27:45;;;;;;;11.50;8.77;;;13.50;99.90;;;;;;2097774;28;20058;-79
2023/06/13 03:28:46;;;;;;;9.77;8.05;;;13.50;99.90;;;;;;2094517;28;20028;-79
2023/06/13 03:29:46;;;;;;;11.65;8.38;;;13.60;99.90;;;;;;2090190;28;20116;-79
2023/06/13 03:30:47;;;;;;;11.02;8.30;;;13.60;99.90;;;;;;2094724;28;20012;-79
2023/06/13 03:31:48;;;;;;;10.98;8.57;;;13.60;99.90;;;;;;2095021;28;20031;-79
2023/06/13 03:32:54;;;;;;;11.32;8.57;;;13.60;99.90;;;;;;2095103;28;20225;-77
2023/06/13 03:33:55;;;;;;;11.15;8.25;;;13.60;99.90;;;;;;2092275;28;20082;-79
2023/06/13 03:34:56;;;;;;;14.80;8.40;;;13.60;99.90;;;;;;2101806;28;20476;-79
2023/06/13 03:35:56;;;;;;;10.38;8.15;;;13.60;99.90;;;;;;2091417;28;20403;-79
2023/06/13 03:37:03;;;;;;;10.52;8.20;;;13.50;99.90;;;;;;2093836;28;20093;-81
2023/06/13 03:38:04;;;;;;;11.95;8.05;;;13.60;99.90;;;;;;2092116;28;20028;-81
2023/06/13 03:39:06;;;;;;;11.13;8.07;;;13.60;99.90;;;;;;2085497;28;20302;-80
2023/06/13 03:40:08;;;;;;;12.10;8.02;;;13.60;99.90;;;;;;2099572;28;20032;-80
2023/06/13 03:41:09;;;;;;;11.38;8.07;;;13.60;99.90;;;;;;2097902;28;20114;-80
2023/06/13 03:42:11;;;;;;;11.88;8.90;;;13.70;99.90;;;;;;2094333;28;20518;-79
2023/06/13 03:43:12;;;;;;;13.32;9.10;;;13.70;99.90;;;;;;2093065;28;20024;-79
2023/06/13 03:44:12;;;;;;;11.52;8.40;;;13.70;99.90;;;;;;2092021;28;20028;-80
2023/06/13 03:45:17;;;;;;;10.02;8.95;;;13.70;99.90;;;;;;2093916;28;20055;-79
2023/06/13 03:46:17;;;;;;;10.73;8.23;;;13.70;99.90;;;;;;2076081;28;20375;-79
2023/06/13 03:47:19;;;;;;;11.43;8.85;;;13.70;99.90;;;;;;2085586;28;20377;-80
2023/06/13 03:48:19;;;;;;;10.80;8.63;;;13.70;99.90;;;;;;2096000;28;20217;-79
2023/06/13 03:49:20;;;;;;;10.95;8.65;;;13.80;99.90;;;;;;2084410;28;20053;-80
2023/06/13 03:50:21;;;;;;;11.23;8.57;;;13.80;99.90;;;;;;2085286;28;20035;-79
2023/06/13 03:51:21;;;;;;;12.45;8.30;;;13.80;99.90;;;;;;2102786;28;20125;-79
2023/06/13 03:52:22;;;;;;;14.05;8.52;;;13.80;99.90;;;;;;2094267;28;20144;-80
2023/06/13 03:53:23;;;;;;;13.85;8.20;;;13.90;99.90;;;;;;2082173;28;20068;-80
2023/06/13 03:54:23;;;;;;;12.93;8.77;;;13.90;99.90;;;;;;2092874;28;20082;-80
2023/06/13 03:55:24;;;;;;;10.93;8.63;;;13.90;99.90;;;;;;2091183;28;20021;-79
2023/06/13 03:56:26;;;;;;;12.25;8.43;;;13.90;99.90;;;;;;2097107;28;20124;-78
2023/06/13 03:57:31;;;;;;;9.38;8.15;;;14.00;99.90;;;;;;2097490;28;20024;-79
2023/06/13 03:58:34;;;;;;;10.95;8.45;;;14.00;99.90;;;;;;2096825;28;20183;-79
2023/06/13 03:59:36;;;;;;;12.05;8.00;;;14.00;99.90;;;;;;2100068;28;20032;-79
2023/06/13 04:00:39;;;;;;;12.52;8.02;;;14.00;99.90;;;;;;2098138;28;20557;-79
2023/06/13 04:01:41;;;;;;;10.75;9.07;;;14.10;99.90;;;;;;2092694;28;20043;-83
2023/06/13 04:02:42;;;;;;;10.10;8.60;;;14.10;99.90;;;;;;2074575;28;20530;-80
2023/06/13 04:03:46;;;;;;;13.05;8.43;;;14.10;99.90;;;;;;2077007;28;20022;-79
2023/06/13 04:04:47;;;;;;;10.73;8.55;;;14.20;99.90;;;;;;2087536;28;20029;-75
2023/06/13 04:05:48;;;;;;;10.60;8.57;;;14.30;99.90;;;;;;2084917;28;20087;-79
2023/06/13 04:06:49;;;;;;;14.85;8.48;;;14.40;99.90;;;;;;2099775;28;20023;-79
2023/06/13 04:07:54;;;;;;;11.23;7.90;;;14.40;99.90;;;;;;2100974;28;20111;-79
2023/06/13 04:08:57;;;;;;;9.40;8.07;;;14.50;99.90;;;;;;2099017;28;20032;-79
2023/06/13 04:09:58;;;;;;;13.73;8.05;;;14.60;99.90;;;;;;2102293;28;20020;-78
2023/06/13 04:10:59;;;;;;;10.25;7.78;;;14.70;99.90;;;;;;2097250;28;20036;-80
2023/06/13 04:12:00;;;;;;;8.63;7.53;;;14.80;99.90;;;;;;2097808;28;20647;-80
2023/06/13 04:13:01;;;;;;;9.30;7.75;;;14.90;99.90;;;;;;2099785;28;20187;-81
2023/06/13 04:14:02;;;;;;;9.77;7.72;;;15.00;99.90;;;;;;2095151;28;20029;-81
2023/06/13 04:15:04;;;;;;;20.20;15.07;;;15.10;99.90;;;;;;2088294;28;20035;-80
2023/06/13 04:16:04;;;;;;;10.23;8.55;;;15.20;99.90;;;;;;2101012;28;20277;-81
2023/06/13 04:17:06;;;;;;;13.88;10.57;;;15.20;99.90;;;;;;2100933;28;20547;-80
2023/06/13 04:18:09;;;;;;;12.10;8.65;;;15.30;99.90;;;;;;2094856;28;20023;-82
2023/06/13 04:19:09;;;;;;;15.27;8.30;;;15.40;99.90;;;;;;2095002;28;20011;-79
2023/06/13 04:20:10;;;;;;;12.02;7.80;;;15.50;99.90;;;;;;2106027;28;20032;-81
2023/06/13 04:21:11;;;;;;;9.98;8.40;;;15.60;99.90;;;;;;2098972;28;20479;-80
2023/06/13 04:22:11;;;;;;;13.25;8.30;;;15.60;99.90;;;;;;2096161;28;20467;-80
2023/06/13 04:23:13;;;;;;;12.32;8.23;;;15.70;99.90;;;;;;2102418;28;20044;-79
2023/06/13 04:24:17;;;;;;;12.27;7.45;;;15.70;99.90;;;;;;2100451;28;20043;-80
2023/06/13 04:25:19;;;;;;;12.30;7.95;;;15.80;99.90;;;;;;2092848;28;20043;-79
2023/06/13 04:26:20;;;;;;;13.27;7.85;;;16.00;99.90;;;;;;2086269;28;20044;-80
2023/06/13 04:27:27;;;;;;;9.18;7.45;;;16.10;99.90;;;;;;2086063;28;20090;-81
2023/06/13 04:28:29;;;;;;;10.02;7.43;;;16.20;99.90;;;;;;2089629;28;20040;-81
2023/06/13 04:29:30;;;;;;;13.02;8.15;;;16.20;99.90;;;;;;2094457;28;20314;-77
2023/06/13 04:30:31;;;;;;;10.35;7.07;;;16.20;99.90;;;;;;2095056;28;20039;-78
2023/06/13 04:31:34;;;;;;;10.68;7.25;;;16.20;99.90;;;;;;2092276;28;20052;-79
2023/06/13 04:32:37;;;;;;;12.93;7.80;;;16.20;99.90;;;;;;2101054;28;20037;-79
2023/06/13 04:33:39;;;;;;;13.35;8.35;;;16.10;99.90;;;;;;2104636;28;20278;-78
2023/06/13 04:34:44;;;;;;;14.93;8.35;;;16.00;99.90;;;;;;2108925;28;20027;-80
2023/06/13 04:35:46;;;;;;;11.82;8.13;;;15.90;99.90;;;;;;2104757;28;20028;-79
2023/06/13 04:36:47;;;;;;;10.20;7.47;;;15.80;99.90;;;;;;2103250;28;20048;-80
2023/06/13 04:37:48;;;;;;;11.48;7.75;;;15.70;99.90;;;;;;2103788;28;20110;-80
2023/06/13 04:38:49;;;;;;;12.60;7.88;;;15.70;99.90;;;;;;2105473;28;20043;-80
2023/06/13 04:39:51;;;;;;;12.82;7.97;;;15.60;99.90;;;;;;2101688;28;20125;-80
2023/06/13 04:40:52;;;;;;;11.90;8.23;;;15.50;99.90;;;;;;2107100;28;20091;-80
2023/06/13 04:41:55;;;;;;;10.90;8.30;;;15.40;99.90;;;;;;2105701;28;20082;-80
2023/06/13 04:42:55;;;;;;;11.05;7.85;;;15.30;99.90;;;;;;2096760;28;20409;-81
2023/06/13 04:43:57;;;;;;;11.23;8.00;;;15.30;99.90;;;;;;2102972;28;20110;-81
2023/06/13 04:45:01;;;;;;;10.30;8.10;;;15.20;99.90;;;;;;2103338;28;20027;-81
2023/06/13 04:46:02;;;;;;;13.05;7.97;;;15.20;99.90;;;;;;2104693;28;20131;-80
2023/06/13 04:47:03;;;;;;;10.77;8.15;;;15.20;99.90;;;;;;2104821;28;20019;-80
2023/06/13 04:48:04;;;;;;;17.90;8.20;;;15.20;99.90;;;;;;2094013;28;20157;-81
2023/06/13 04:49:05;;;;;;;14.48;8.57;;;15.20;99.90;;;;;;2105371;28;20036;-79
2023/06/13 04:50:06;;;;;;;14.85;7.72;;;15.30;99.90;;;;;;2103128;28;20124;-81
2023/06/13 04:51:09;;;;;;;20.52;8.30;;;15.40;99.90;;;;;;2100869;28;20396;-80
2023/06/13 04:52:13;;;;;;;13.70;8.57;;;15.40;99.90;;;;;;2098712;28;20033;-80
2023/06/13 04:53:15;;;;;;;11.20;7.70;;;15.50;99.90;;;;;;2104459;28;20040;-78
2023/06/13 04:54:16;;;;;;;10.98;8.02;;;15.50;99.90;;;;;;2103536;28;20070;-81
2023/06/13 04:55:17;;;;;;;13.70;8.73;;;15.50;99.90;;;;;;2102756;28;20375;-80
2023/06/13 04:56:18;;;;;;;15.07;8.55;;;15.60;99.90;;;;;;2103197;28;20026;-81
2023/06/13 04:57:19;;;;;;;13.73;8.40;;;15.60;99.90;;;;;;2100470;28;20027;-81
2023/06/13 04:58:19;;;;;;;14.82;9.20;;;15.60;99.90;;;;;;2100607;28;20228;-81
2023/06/13 04:59:20;;;;;;;12.02;8.68;;;15.50;99.90;;;;;;2100340;28;20032;-82
2023/06/13 05:00:22;;;;;;;10.88;8.23;;;15.40;99.90;;;;;;2102226;28;20298;-78
2023/06/13 05:01:26;;;;;;;11.60;8.70;;;15.40;99.90;;;;;;2102722;28;20024;-80
2023/06/13 05:02:28;;;;;;;13.95;8.75;;;15.40;99.90;;;;;;2097929;28;20032;-80
2023/06/13 05:03:29;;;;;;;14.27;8.30;;;15.50;99.90;;;;;;2102632;28;20025;-80
2023/06/13 05:04:30;;;;;;;12.82;8.32;;;15.70;99.90;;;;;;2094420;28;20017;-81
2023/06/13 05:05:30;;;;;;;11.77;8.50;;;16.00;99.90;;;;;;2096794;28;20540;-81
2023/06/13 05:06:34;;;;;;;11.32;8.45;;;16.20;99.90;;;;;;2102135;28;20119;-79
2023/06/13 05:07:35;;;;;;;11.40;8.20;;;16.30;99.90;;;;;;2104450;28;20028;-80
2023/06/13 05:08:36;;;;;;;11.07;7.57;;;16.60;99.90;;;;;;2099298;28;20123;-80
2023/06/13 05:09:37;;;;;;;13.40;7.80;;;16.80;99.90;;;;;;2096568;28;20497;-80
2023/06/13 05:10:37;;;;;;;12.70;7.30;;;17.00;99.90;;;;;;2106351;28;20434;-80
2023/06/13 05:11:38;;;;;;;11.02;7.60;;;17.30;99.90;;;;;;2102458;28;20024;-82
2023/06/13 05:12:38;;;;;;;11.10;8.20;;;17.50;99.90;;;;;;2102250;28;20028;-82
2023/06/13 05:13:39;;;;;;;11.82;7.65;;;17.70;99.90;;;;;;2102112;28;20533;-82
2023/06/13 05:14:40;;;;;;;11.50;7.40;;;17.80;99.90;;;;;;2094434;28;20035;-81
2023/06/13 05:15:42;;;;;;;9.45;7.53;;;18.00;99.80;;;;;;2089792;28;20137;-81
2023/06/13 05:16:43;;;;;;;12.10;7.20;;;18.10;98.50;;;;;;2095733;28;20044;-82
2023/06/13 05:17:45;;;;;;;10.45;7.55;;;18.30;97.10;;;;;;2099492;28;20056;-81
2023/06/13 05:18:46;;;;;;;11.73;7.80;;;18.50;96.50;;;;;;2095928;28;20056;-81
2023/06/13 05:19:47;;;;;;;10.10;7.22;;;18.70;95.90;;;;;;2099386;28;20138;-82
2023/06/13 05:20:48;;;;;;;11.65;7.10;;;18.80;94.70;;;;;;2098702;28;20077;-78
2023/06/13 05:21:48;;;;;;;10.65;6.93;;;18.90;94.10;;;;;;2102404;28;20539;-81
2023/06/13 05:22:53;;;;;;;10.40;7.18;;;19.00;93.60;;;;;;2104236;28;20039;-82